Time;durP1;ratioP1;P1;durP2;ratioP2;P2;SDS_P1;SDS_P2;PMS_P1;PMS_P2;Temp;Humidity;BMP_temperature;BMP_pressure;BME280_temperature;BME280_humidity;BME280_pressure;Samples;Min_cycle;Max_cycle;Signal;HPM_P1;HPM_P2
2021/04/30 00:00:59;;;;;;;5.15;4.65;;;;;;;;;;4903936;29;20052;-77
2021/04/30 00:03:25;;;;;;;5.63;5.05;;;;;;;;;;4907516;29;20056;-78
2021/04/30 00:05:52;;;;;;;5.07;4.57;;;;;;;;;;4908785;29;20092;-78
2021/04/30 00:08:18;;;;;;;6.45;4.78;;;;;;;;;;4918687;29;20055;-78
2021/04/30 00:10:44;;;;;;;5.43;4.93;;;;;;;;;;4903575;29;20081;-78
2021/04/30 00:13:11;;;;;;;5.65;4.60;;;;;;;;;;4904331;29;20082;-77
2021/04/30 00:15:37;;;;;;;6.03;4.55;;;;;;;;;;4904872;29;20050;-78
2021/04/30 00:18:04;;;;;;;5.25;4.75;;;;;;;;;;4919798;29;20052;-77
2021/04/30 00:20:32;;;;;;;5.28;4.78;;;;;;;;;;4904023;29;20063;-78
2021/04/30 00:22:58;;;;;;;5.57;4.53;;;;;;;;;;4920089;29;20063;-78
2021/04/30 00:25:25;;;;;;;5.93;5.35;;;;;;;;;;4919020;29;20048;-78
2021/04/30 00:27:51;;;;;;;5.57;4.97;;;;;;;;;;4904516;29;20048;-78
2021/04/30 00:30:18;;;;;;;5.47;4.97;;;;;;;;;;4920217;29;20091;-77
2021/04/30 00:32:44;;;;;;;5.65;5.00;;;;;;;;;;4915859;29;20057;-77
2021/04/30 00:35:10;;;;;;;5.70;5.10;;;;;;;;;;4899426;29;20107;-76
2021/04/30 00:37:39;;;;;;;5.63;5.10;;;;;;;;;;4913707;29;20067;-77
2021/04/30 00:40:09;;;;;;;6.53;5.82;;;;;;;;;;4913579;29;20056;-76
2021/04/30 00:42:36;;;;;;;6.82;5.72;;;;;;;;;;4898423;29;20444;-76
2021/04/30 00:45:04;;;;;;;6.28;5.65;;;;;;;;;;4915504;29;20048;-76
2021/04/30 00:47:33;;;;;;;6.72;5.25;;;;;;;;;;4899833;29;20456;-77
2021/04/30 00:50:08;;;;;;;6.65;6.03;;;;;;;;;;4915565;29;20060;-77
2021/04/30 00:52:38;;;;;;;6.75;6.10;;;;;;;;;;4914989;29;20060;-76
2021/04/30 00:55:06;;;;;;;9.00;6.28;;;;;;;;;;4899586;29;20052;-76
2021/04/30 00:57:32;;;;;;;6.40;5.70;;;;;;;;;;4898886;29;20067;-77
2021/04/30 00:59:59;;;;;;;7.03;6.32;;;;;;;;;;4897075;29;20089;-77
2021/04/30 01:02:25;;;;;;;7.25;6.45;;;;;;;;;;4910554;29;20044;-76
2021/04/30 01:04:52;;;;;;;6.35;5.60;;;;;;;;;;4913469;29;20069;-76
2021/04/30 01:07:18;;;;;;;7.22;6.50;;;;;;;;;;4882773;29;20052;-75
2021/04/30 01:09:45;;;;;;;6.88;6.18;;;;;;;;;;4883214;29;20056;-76
2021/04/30 01:12:11;;;;;;;10.60;7.18;;;;;;;;;;4930254;29;20071;-77
2021/04/30 01:14:37;;;;;;;7.80;6.95;;;;;;;;;;4877449;28;20059;-77
2021/04/30 01:17:03;;;;;;;6.90;6.20;;;;;;;;;;4913438;29;20060;-76
2021/04/30 01:19:31;;;;;;;6.07;5.47;;;;;;;;;;4930136;29;20060;-76
2021/04/30 01:21:58;;;;;;;8.65;6.38;;;;;;;;;;4930151;29;20055;-76
2021/04/30 01:24:25;;;;;;;7.50;6.15;;;;;;;;;;4929747;29;20048;-76
2021/04/30 01:26:51;;;;;;;8.25;7.18;;;;;;;;;;4898155;29;20060;-75
2021/04/30 01:29:18;;;;;;;7.55;6.75;;;;;;;;;;4898908;29;20064;-73
2021/04/30 01:31:44;;;;;;;6.78;6.05;;;;;;;;;;4898728;29;20436;-73
2021/04/30 01:34:11;;;;;;;8.90;7.40;;;;;;;;;;4914218;29;20071;-73
2021/04/30 01:36:38;;;;;;;7.00;6.22;;;;;;;;;;4899470;29;20396;-78
2021/04/30 01:39:13;;;;;;;6.85;6.10;;;;;;;;;;4901461;29;20071;-77
2021/04/30 01:41:40;;;;;;;7.10;6.07;;;;;;;;;;4931030;29;20356;-77
2021/04/30 01:44:09;;;;;;;8.77;6.53;;;;;;;;;;4899046;29;20139;-77
2021/04/30 01:46:36;;;;;;;7.93;6.72;;;;;;;;;;4914537;29;20096;-77
2021/04/30 01:49:04;;;;;;;8.32;6.75;;;;;;;;;;4899455;29;20048;-77
2021/04/30 01:51:30;;;;;;;7.43;6.57;;;;;;;;;;4899357;29;20056;-77
2021/04/30 01:53:56;;;;;;;6.47;5.88;;;;;;;;;;4899848;29;20059;-77
2021/04/30 01:56:22;;;;;;;7.38;6.63;;;;;;;;;;4898548;29;20496;-77
2021/04/30 01:58:49;;;;;;;9.43;6.75;;;;;;;;;;4898929;29;20059;-78
2021/04/30 02:01:15;;;;;;;7.70;6.18;;;;;;;;;;4898531;29;20056;-77
2021/04/30 02:03:41;;;;;;;8.25;6.60;;;;;;;;;;4898562;29;20052;-77
2021/04/30 02:06:07;;;;;;;7.85;6.25;;;;;;;;;;4899862;29;20291;-77
2021/04/30 02:08:34;;;;;;;8.63;7.10;;;;;;;;;;4899488;29;20060;-76
2021/04/30 02:11:02;;;;;;;7.07;6.38;;;;;;;;;;4914287;29;20059;-76
2021/04/30 02:13:29;;;;;;;8.50;6.93;;;;;;;;;;4916838;29;20068;-77
2021/04/30 02:15:55;;;;;;;8.15;6.88;;;;;;;;;;4901958;29;20059;-77
2021/04/30 02:18:22;;;;;;;9.07;7.25;;;;;;;;;;4916900;29;20056;-78
2021/04/30 02:20:49;;;;;;;9.05;7.55;;;;;;;;;;4901920;29;20056;-77
2021/04/30 02:23:15;;;;;;;8.57;7.07;;;;;;;;;;4901282;29;20492;-77
2021/04/30 02:25:42;;;;;;;8.93;7.40;;;;;;;;;;4899777;29;20457;-77
2021/04/30 02:28:08;;;;;;;8.73;7.85;;;;;;;;;;4918705;29;20139;-77
2021/04/30 02:30:37;;;;;;;9.07;7.78;;;;;;;;;;4903320;29;20063;-77
2021/04/30 02:33:04;;;;;;;11.55;8.25;;;;;;;;;;4904487;29;20063;-77
2021/04/30 02:35:33;;;;;;;10.35;7.40;;;;;;;;;;4918930;29;20060;-77
2021/04/30 02:37:59;;;;;;;10.27;7.82;;;;;;;;;;4918263;29;20492;-77
2021/04/30 02:40:28;;;;;;;11.95;8.98;;;;;;;;;;4903849;29;20059;-77
2021/04/30 02:42:56;;;;;;;7.80;7.00;;;;;;;;;;4903893;29;20417;-76
2021/04/30 02:45:22;;;;;;;8.98;7.32;;;;;;;;;;4919751;29;20048;-76
2021/04/30 02:47:49;;;;;;;9.52;7.72;;;;;;;;;;4901776;29;20063;-77
2021/04/30 02:50:19;;;;;;;11.93;8.73;;;;;;;;;;4917030;29;20496;-76
2021/04/30 02:52:46;;;;;;;9.25;7.80;;;;;;;;;;4901614;29;20110;-77
2021/04/30 02:55:13;;;;;;;11.85;8.30;;;;;;;;;;4933042;29;20460;-77
2021/04/30 02:57:40;;;;;;;8.73;7.82;;;;;;;;;;4913853;29;20059;-77
2021/04/30 03:00:08;;;;;;;10.52;8.52;;;;;;;;;;4897956;29;20545;-76
2021/04/30 03:02:34;;;;;;;10.43;8.98;;;;;;;;;;4897884;29;20108;-76
2021/04/30 03:05:00;;;;;;;9.32;8.20;;;;;;;;;;4913429;29;20535;-77
2021/04/30 03:07:26;;;;;;;10.50;8.73;;;;;;;;;;4903004;29;20048;-76
2021/04/30 03:09:53;;;;;;;10.40;8.80;;;;;;;;;;4916691;29;20052;-77
2021/04/30 03:12:19;;;;;;;9.70;8.30;;;;;;;;;;4900945;29;20488;-76
2021/04/30 03:14:45;;;;;;;10.40;8.50;;;;;;;;;;4916547;29;20064;-75
2021/04/30 03:17:11;;;;;;;10.13;9.02;;;;;;;;;;4900527;29;20055;-76
2021/04/30 03:19:37;;;;;;;11.45;9.05;;;;;;;;;;4900935;29;20052;-76
2021/04/30 03:22:04;;;;;;;10.93;8.68;;;;;;;;;;4932170;29;20059;-76
2021/04/30 03:24:31;;;;;;;10.48;8.95;;;;;;;;;;4916517;29;20103;-76
2021/04/30 03:26:57;;;;;;;14.82;9.77;;;;;;;;;;4900259;29;20107;-77
2021/04/30 03:29:23;;;;;;;10.45;8.65;;;;;;;;;;4916256;29;20052;-77
2021/04/30 03:31:50;;;;;;;11.20;9.48;;;;;;;;;;4916362;29;20056;-76
2021/04/30 03:34:16;;;;;;;11.88;9.73;;;;;;;;;;4916174;29;20063;-77
2021/04/30 03:36:42;;;;;;;9.25;8.30;;;;;;;;;;4912674;29;20064;-77
2021/04/30 03:39:08;;;;;;;12.88;9.18;;;;;;;;;;4897671;29;20049;-77
2021/04/30 03:41:35;;;;;;;12.10;9.20;;;;;;;;;;4897313;29;20067;-77
2021/04/30 03:44:02;;;;;;;12.48;9.63;;;;;;;;;;4945780;23;20044;-69
2021/04/30 03:46:28;;;;;;;12.00;9.32;;;;;;;;;;4923076;29;20051;-69
2021/04/30 03:48:54;;;;;;;11.10;8.93;;;;;;;;;;4917136;29;20103;-69
2021/04/30 03:51:21;;;;;;;10.88;9.00;;;;;;;;;;4931770;29;20048;-69
2021/04/30 03:53:47;;;;;;;10.88;8.80;;;;;;;;;;4917095;29;20052;-69
2021/04/30 03:56:13;;;;;;;10.77;8.52;;;;;;;;;;4916253;29;20555;-69
2021/04/30 03:58:39;;;;;;;11.38;8.82;;;;;;;;;;4899930;29;20074;-69
2021/04/30 04:01:08;;;;;;;10.40;9.15;;;;;;;;;;4916560;29;20052;-69
2021/04/30 04:03:37;;;;;;;11.10;9.65;;;;;;;;;;4900274;29;20115;-69
2021/04/30 04:06:03;;;;;;;12.55;9.07;;;;;;;;;;4916078;29;20040;-69
2021/04/30 04:08:29;;;;;;;10.80;8.82;;;;;;;;;;4915475;29;20079;-69
2021/04/30 04:10:55;;;;;;;11.50;9.77;;;;;;;;;;4916742;29;20047;-69
2021/04/30 04:13:24;;;;;;;10.50;8.90;;;;;;;;;;4916433;29;20056;-69
2021/04/30 04:15:50;;;;;;;12.95;9.43;;;;;;;;;;4914730;29;20500;-69
2021/04/30 04:18:18;;;;;;;14.45;10.27;;;;;;;;;;4916444;29;20056;-69
2021/04/30 04:20:45;;;;;;;11.43;9.55;;;;;;;;;;4915664;29;20241;-69
2021/04/30 04:23:11;;;;;;;12.45;9.43;;;;;;;;;;4916277;29;20571;-69
2021/04/30 04:25:38;;;;;;;12.10;9.70;;;;;;;;;;4915547;29;20048;-70
2021/04/30 04:28:04;;;;;;;10.55;8.80;;;;;;;;;;4916192;29;20495;-69
2021/04/30 04:30:31;;;;;;;10.95;8.27;;;;;;;;;;4899415;29;20060;-69
2021/04/30 04:32:57;;;;;;;11.00;9.38;;;;;;;;;;4898919;29;20567;-69
2021/04/30 04:35:23;;;;;;;12.07;8.75;;;;;;;;;;4898505;29;20543;-70
2021/04/30 04:37:49;;;;;;;11.00;9.50;;;;;;;;;;4899385;29;20052;-70
2021/04/30 04:40:16;;;;;;;12.95;9.82;;;;;;;;;;4916026;29;20052;-70
2021/04/30 04:42:43;;;;;;;10.88;8.63;;;;;;;;;;4899006;29;20056;-69
2021/04/30 04:45:10;;;;;;;11.07;9.32;;;;;;;;;;4915609;29;20084;-70
2021/04/30 04:47:36;;;;;;;9.70;8.70;;;;;;;;;;4898849;29;20060;-69
2021/04/30 04:50:03;;;;;;;11.38;9.65;;;;;;;;;;4915960;29;20052;-69
2021/04/30 04:52:29;;;;;;;13.05;9.07;;;;;;;;;;4899044;29;20278;-70
2021/04/30 04:54:55;;;;;;;11.27;9.02;;;;;;;;;;4915917;29;20619;-70
2021/04/30 04:57:21;;;;;;;12.23;9.75;;;;;;;;;;4915262;29;20555;-70
2021/04/30 04:59:47;;;;;;;11.10;8.75;;;;;;;;;;4915892;29;20052;-70
2021/04/30 05:02:13;;;;;;;14.13;9.10;;;;;;;;;;4914718;29;20057;-70
2021/04/30 05:04:41;;;;;;;12.48;9.38;;;;;;;;;;4902200;29;20455;-70
2021/04/30 05:07:07;;;;;;;13.05;9.65;;;;;;;;;;4915399;29;20463;-70
2021/04/30 05:09:33;;;;;;;12.35;9.35;;;;;;;;;;4915639;29;20115;-70
2021/04/30 05:11:59;;;;;;;12.68;8.88;;;;;;;;;;4915667;29;20048;-70
2021/04/30 05:14:26;;;;;;;12.98;8.57;;;;;;;;;;4915406;29;20060;-70
2021/04/30 05:17:05;;;;;;;10.05;8.55;;;;;;;;;;4915001;29;20056;-69
2021/04/30 05:19:31;;;;;;;11.88;9.15;;;;;;;;;;4915887;29;20075;-69
2021/04/30 05:21:57;;;;;;;12.15;8.77;;;;;;;;;;4898951;29;20409;-69
2021/04/30 05:24:23;;;;;;;13.18;9.05;;;;;;;;;;4898895;29;20052;-69
2021/04/30 05:26:49;;;;;;;12.73;9.35;;;;;;;;;;4911922;29;20471;-70
2021/04/30 05:29:16;;;;;;;10.85;8.73;;;;;;;;;;4915561;29;20056;-69
2021/04/30 05:31:42;;;;;;;13.63;9.25;;;;;;;;;;4914257;29;20297;-69
2021/04/30 05:34:08;;;;;;;11.10;9.73;;;;;;;;;;4915485;29;20062;-69
2021/04/30 05:36:34;;;;;;;12.88;9.60;;;;;;;;;;4914765;29;20060;-69
2021/04/30 05:39:00;;;;;;;12.23;9.43;;;;;;;;;;4915589;29;20052;-69
2021/04/30 05:41:27;;;;;;;13.45;9.10;;;;;;;;;;4915489;29;20088;-69
2021/04/30 05:43:53;;;;;;;17.20;9.82;;;;;;;;;;4914397;29;20084;-70
2021/04/30 05:46:19;;;;;;;11.07;9.38;;;;;;;;;;4914909;29;20494;-69
2021/04/30 05:48:45;;;;;;;11.77;9.73;;;;;;;;;;4930025;29;20442;-70
2021/04/30 05:51:11;;;;;;;11.57;9.75;;;;;;;;;;4915426;29;20123;-70
2021/04/30 05:53:37;;;;;;;10.88;8.68;;;;;;;;;;4915388;29;20090;-69
2021/04/30 05:56:20;;;;;;;11.07;8.43;;;;;;;;;;4915731;29;20076;-70
2021/04/30 05:58:46;;;;;;;12.05;9.10;;;;;;;;;;4915471;29;20047;-70
2021/04/30 06:01:12;;;;;;;12.35;8.57;;;;;;;;;;4898655;29;20056;-70
2021/04/30 06:03:38;;;;;;;11.50;8.73;;;;;;;;;;4915422;29;20060;-70
2021/04/30 06:06:04;;;;;;;11.52;9.00;;;;;;;;;;4914844;29;20044;-70
2021/04/30 06:08:31;;;;;;;14.02;10.15;;;;;;;;;;4915258;29;20055;-70
2021/04/30 06:10:57;;;;;;;11.48;8.65;;;;;;;;;;4915301;29;20104;-69
2021/04/30 06:13:23;;;;;;;11.90;8.95;;;;;;;;;;4917017;29;20192;-70
2021/04/30 06:15:49;;;;;;;10.50;8.82;;;;;;;;;;4918175;29;20052;-70
2021/04/30 06:18:15;;;;;;;10.82;8.43;;;;;;;;;;4918715;29;20107;-70
2021/04/30 06:20:42;;;;;;;11.93;8.68;;;;;;;;;;4918657;29;20078;-70
2021/04/30 06:23:08;;;;;;;15.93;8.40;;;;;;;;;;4918624;29;20051;-70
2021/04/30 06:25:34;;;;;;;8.85;7.95;;;;;;;;;;4917823;29;20068;-70
2021/04/30 06:28:00;;;;;;;12.48;8.25;;;;;;;;;;4918464;29;20095;-70
2021/04/30 06:30:26;;;;;;;15.95;8.93;;;;;;;;;;4918781;29;20570;-70
2021/04/30 06:32:52;;;;;;;12.25;8.55;;;;;;;;;;4919076;29;20052;-71
2021/04/30 06:35:18;;;;;;;10.70;8.52;;;;;;;;;;4901814;29;20055;-70
2021/04/30 06:37:44;;;;;;;10.93;9.27;;;;;;;;;;4918499;29;20052;-70
2021/04/30 06:40:11;;;;;;;12.15;8.80;;;;;;;;;;4916373;29;20088;-70
2021/04/30 06:42:37;;;;;;;11.75;8.25;;;;;;;;;;4898969;29;20087;-70
2021/04/30 06:45:03;;;;;;;9.50;8.35;;;;;;;;;;4916236;29;20052;-70
2021/04/30 06:47:30;;;;;;;11.75;8.10;;;;;;;;;;4915510;29;20056;-71
2021/04/30 06:49:56;;;;;;;12.55;7.82;;;;;;;;;;4916528;29;20056;-70
2021/04/30 06:52:22;;;;;;;8.82;7.93;;;;;;;;;;4915299;29;20462;-70
2021/04/30 06:54:48;;;;;;;10.80;8.20;;;;;;;;;;4915933;29;20056;-70
2021/04/30 06:57:34;;;;;;;12.73;8.50;;;;;;;;;;4915533;29;20052;-70
2021/04/30 07:00:04;;;;;;;8.93;7.90;;;;;;;;;;4915979;29;20056;-70
2021/04/30 07:02:30;;;;;;;9.85;8.10;;;;;;;;;;4883485;29;20083;-70
2021/04/30 07:04:57;;;;;;;9.95;8.88;;;;;;;;;;4915608;29;20141;-70
2021/04/30 07:07:24;;;;;;;11.35;8.68;;;;;;;;;;4914594;29;20168;-70
2021/04/30 07:09:50;;;;;;;11.23;8.98;;;;;;;;;;4883538;29;20056;-70
2021/04/30 07:12:18;;;;;;;12.73;8.23;;;;;;;;;;4914353;29;20067;-70
2021/04/30 07:14:46;;;;;;;10.80;8.73;;;;;;;;;;4914443;29;20056;-70
2021/04/30 07:17:12;;;;;;;10.50;8.93;;;;;;;;;;4914886;29;20579;-70
2021/04/30 07:19:38;;;;;;;11.73;8.48;;;;;;;;;;4913848;29;20150;-70
2021/04/30 07:22:09;;;;;;;12.52;8.85;;;;;;;;;;4915525;29;20056;-70
2021/04/30 07:24:37;;;;;;;11.77;8.43;;;;;;;;;;4914802;29;20062;-70
2021/04/30 07:27:05;;;;;;;10.45;8.55;;;;;;;;;;4909276;29;20056;-69
2021/04/30 07:29:31;;;;;;;9.55;8.55;;;;;;;;;;4907430;29;20548;-70
2021/04/30 07:31:59;;;;;;;11.50;8.23;;;;;;;;;;4912963;29;20048;-70
2021/04/30 07:34:38;;;;;;;12.57;8.68;;;;;;;;;;4901110;29;20572;-67
2021/04/30 07:37:05;;;;;;;9.70;8.15;;;;;;;;;;4913756;29;20499;-68
2021/04/30 07:39:35;;;;;;;9.38;7.97;;;;;;;;;;4913817;29;20060;-68
2021/04/30 07:42:03;;;;;;;8.27;7.47;;;;;;;;;;4914384;29;20048;-68
2021/04/30 07:44:31;;;;;;;9.82;8.20;;;;;;;;;;4913326;29;20467;-69
2021/04/30 07:46:58;;;;;;;12.13;8.60;;;;;;;;;;4910270;29;20062;-69
2021/04/30 07:49:25;;;;;;;11.02;7.75;;;;;;;;;;4914202;29;20499;-68
2021/04/30 07:51:52;;;;;;;9.68;7.82;;;;;;;;;;4914064;29;20059;-69
2021/04/30 07:54:18;;;;;;;9.38;7.68;;;;;;;;;;4913148;29;20100;-70
2021/04/30 07:56:45;;;;;;;10.60;7.63;;;;;;;;;;4905097;29;20435;-71
2021/04/30 07:59:11;;;;;;;9.27;7.40;;;;;;;;;;4904155;29;20108;-72
2021/04/30 08:01:37;;;;;;;9.52;7.45;;;;;;;;;;4912929;29;20083;-73
2021/04/30 08:04:03;;;;;;;9.75;7.45;;;;;;;;;;4896602;29;20052;-73
2021/04/30 08:06:30;;;;;;;9.18;6.82;;;;;;;;;;4912532;29;20076;-71
2021/04/30 08:08:56;;;;;;;9.32;7.70;;;;;;;;;;4912436;29;20056;-70
2021/04/30 08:11:22;;;;;;;9.15;7.65;;;;;;;;;;4915811;29;20087;-70
2021/04/30 08:13:48;;;;;;;8.35;7.43;;;;;;;;;;4904843;29;20056;-70
2021/04/30 08:16:14;;;;;;;8.73;6.93;;;;;;;;;;4914886;29;20056;-69
2021/04/30 08:18:40;;;;;;;10.98;7.20;;;;;;;;;;4915736;29;20056;-69
2021/04/30 08:21:07;;;;;;;11.70;7.65;;;;;;;;;;4915836;29;20392;-69
2021/04/30 08:23:35;;;;;;;9.27;7.60;;;;;;;;;;4915601;29;20071;-69
2021/04/30 08:26:02;;;;;;;9.75;8.05;;;;;;;;;;4915466;29;20044;-69
2021/04/30 08:28:28;;;;;;;9.68;7.57;;;;;;;;;;4916013;29;20052;-69
2021/04/30 08:30:54;;;;;;;11.70;7.38;;;;;;;;;;4916226;29;20056;-69
2021/04/30 08:33:24;;;;;;;9.95;8.30;;;;;;;;;;4915716;29;20056;-69
2021/04/30 08:35:51;;;;;;;11.57;8.32;;;;;;;;;;4915418;29;20460;-69
2021/04/30 08:38:18;;;;;;;10.48;7.57;;;;;;;;;;4915548;29;20056;-69
2021/04/30 08:40:44;;;;;;;8.70;7.80;;;;;;;;;;4915629;29;20475;-70
2021/04/30 08:43:18;;;;;;;10.43;8.30;;;;;;;;;;4915359;29;20055;-69
2021/04/30 08:45:44;;;;;;;11.82;8.30;;;;;;;;;;4913418;29;20475;-69
2021/04/30 08:48:13;;;;;;;12.75;8.10;;;;;;;;;;4915348;29;20270;-69
2021/04/30 08:50:40;;;;;;;14.93;8.50;;;;;;;;;;4915224;29;20108;-69
2021/04/30 08:53:06;;;;;;;10.27;8.43;;;;;;;;;;4915164;29;20052;-69
2021/04/30 08:55:33;;;;;;;10.13;8.65;;;;;;;;;;4914882;29;20076;-69
2021/04/30 08:57:59;;;;;;;10.30;8.27;;;;;;;;;;4907970;29;20566;-69
2021/04/30 09:00:28;;;;;;;13.48;9.82;;;;;;;;;;4898593;29;20127;-69
2021/04/30 09:02:55;;;;;;;12.63;8.63;;;;;;;;;;4915228;29;20079;-70
2021/04/30 09:05:23;;;;;;;11.45;8.65;;;;;;;;;;4897572;29;20040;-69
2021/04/30 09:07:49;;;;;;;13.35;8.68;;;;;;;;;;4915612;29;20052;-69
2021/04/30 09:10:19;;;;;;;13.27;8.45;;;;;;;;;;4929549;29;20056;-69
2021/04/30 09:12:49;;;;;;;10.35;8.98;;;;;;;;;;4913083;29;20133;-69
2021/04/30 09:15:20;;;;;;;10.60;8.68;;;;;;;;;;4865583;29;20045;-70
2021/04/30 09:17:46;;;;;;;12.55;9.02;;;;;;;;;;4896660;29;20104;-69
2021/04/30 09:20:13;;;;;;;14.30;9.90;;;;;;;;;;4901871;29;20043;-69
2021/04/30 09:22:44;;;;;;;12.90;9.85;;;;;;;;;;4915651;29;20495;-70
2021/04/30 09:25:11;;;;;;;13.10;9.38;;;;;;;;;;4915735;29;20052;-69
2021/04/30 09:27:39;;;;;;;13.32;9.95;;;;;;;;;;4898561;29;20107;-69
2021/04/30 09:30:27;;;;;;;16.65;10.25;;;;;;;;;;4897622;29;20087;-70
2021/04/30 09:33:09;;;;;;;12.20;10.25;;;;;;;;;;4914189;29;20319;-68
2021/04/30 09:35:46;;;;;;;13.88;10.13;;;;;;;;;;4915322;29;20060;-69
2021/04/30 09:38:33;;;;;;;13.80;10.75;;;;;;;;;;4915700;29;20052;-69
2021/04/30 09:41:09;;;;;;;13.10;9.25;;;;;;;;;;4915489;29;20048;-69
2021/04/30 09:43:43;;;;;;;11.45;10.25;;;;;;;;;;4912900;29;20107;-73
2021/04/30 09:46:29;;;;;;;14.20;10.98;;;;;;;;;;4915089;29;20104;-69
2021/04/30 09:49:07;;;;;;;12.38;10.02;;;;;;;;;;4918085;29;20056;-69
2021/04/30 09:51:46;;;;;;;18.75;10.95;;;;;;;;;;4919043;29;20064;-69
2021/04/30 09:54:20;;;;;;;12.52;10.27;;;;;;;;;;4914316;29;20138;-72
2021/04/30 09:56:47;;;;;;;13.77;10.43;;;;;;;;;;4917296;29;20048;-71
2021/04/30 09:59:27;;;;;;;11.70;9.77;;;;;;;;;;4913945;29;20095;-73
2021/04/30 10:02:04;;;;;;;17.20;11.10;;;;;;;;;;4882475;29;20055;-70
2021/04/30 10:04:33;;;;;;;14.52;10.80;;;;;;;;;;4917109;29;20140;-70
2021/04/30 10:07:03;;;;;;;13.20;10.73;;;;;;;;;;4917137;29;20064;-69
2021/04/30 10:09:31;;;;;;;13.05;10.05;;;;;;;;;;4917834;29;20044;-70
2021/04/30 10:11:57;;;;;;;13.75;10.05;;;;;;;;;;4917789;29;20190;-70
2021/04/30 10:14:24;;;;;;;12.30;10.68;;;;;;;;;;4904696;29;20043;-71
2021/04/30 10:16:53;;;;;;;13.50;10.20;;;;;;;;;;4906320;29;20108;-72
2021/04/30 10:19:21;;;;;;;16.98;10.20;;;;;;;;;;4914302;29;20044;-71
2021/04/30 10:21:48;;;;;;;13.32;10.60;;;;;;;;;;4918106;29;20087;-72
2021/04/30 10:24:15;;;;;;;15.32;11.95;;;;;;;;;;4908744;29;20060;-71
2021/04/30 10:27:00;;;;;;;14.85;10.57;;;;;;;;;;4907125;29;20052;-70
2021/04/30 10:29:36;;;;;;;12.65;10.75;;;;;;;;;;4901910;29;20507;-73
2021/04/30 10:32:03;;;;;;;16.50;12.52;;;;;;;;;;4900896;29;20253;-72
2021/04/30 10:34:37;;;;;;;15.25;11.23;;;;;;;;;;4890135;29;20422;-73
2021/04/30 10:37:05;;;;;;;17.30;11.52;;;;;;;;;;4883055;29;20103;-72
2021/04/30 10:39:33;;;;;;;16.30;11.00;;;;;;;;;;4883706;29;20052;-72
2021/04/30 10:42:10;;;;;;;18.45;11.48;;;;;;;;;;4905431;29;20087;-72
2021/04/30 10:44:44;;;;;;;15.30;11.30;;;;;;;;;;4912164;29;20056;-72
2021/04/30 10:47:10;;;;;;;17.15;12.88;;;;;;;;;;4912111;29;20052;-72
2021/04/30 10:49:38;;;;;;;21.75;13.70;;;;;;;;;;4914853;29;20056;-72
2021/04/30 10:52:08;;;;;;;16.45;12.98;;;;;;;;;;4898269;29;20502;-72
2021/04/30 10:54:35;;;;;;;17.17;13.55;;;;;;;;;;4914752;29;20131;-72
2021/04/30 10:57:04;;;;;;;18.13;13.75;;;;;;;;;;4915945;29;20127;-72
2021/04/30 10:59:40;;;;;;;18.92;15.48;;;;;;;;;;4898636;29;20062;-72
2021/04/30 11:02:09;;;;;;;18.17;14.23;;;;;;;;;;4915971;29;20052;-69
2021/04/30 11:04:36;;;;;;;20.48;14.80;;;;;;;;;;4912555;29;20140;-69
2021/04/30 11:07:03;;;;;;;21.27;16.55;;;;;;;;;;4905732;29;20052;-70
2021/04/30 11:09:37;;;;;;;22.33;15.05;;;;;;;;;;4885108;29;20523;-71
2021/04/30 11:12:19;;;;;;;;;;;;;;;;;;4906783;29;20054;-72
2021/04/30 11:15:02;;;;;;;21.95;15.73;;;;;;;;;;4914721;29;19946;-71
2021/04/30 11:17:54;;;;;;;23.88;16.45;;;;;;;;;;4913853;29;20048;-71
2021/04/30 11:20:22;;;;;;;26.15;16.38;;;;;;;;;;4916281;29;20045;-73
2021/04/30 11:23:20;;;;;;;24.40;16.30;;;;;;;;;;4891202;29;20561;-71
2021/04/30 11:26:07;;;;;;;25.60;15.77;;;;;;;;;;4914518;29;20103;-72
2021/04/30 11:28:34;;;;;;;20.67;15.57;;;;;;;;;;4896866;29;20602;-68
2021/04/30 11:31:26;;;;;;;21.33;16.05;;;;;;;;;;4916269;29;20051;-68
2021/04/30 11:34:18;;;;;;;22.05;15.18;;;;;;;;;;4903293;29;20095;-72
2021/04/30 11:36:55;;;;;;;22.38;14.75;;;;;;;;;;4916582;29;20051;-72
2021/04/30 11:39:32;;;;;;;23.70;15.73;;;;;;;;;;4901287;29;20059;-71
2021/04/30 11:42:00;;;;;;;25.33;16.88;;;;;;;;;;4916971;29;20062;-70
2021/04/30 11:44:27;;;;;;;24.05;16.95;;;;;;;;;;4889801;29;20073;-71
2021/04/30 11:47:04;;;;;;;28.52;17.50;;;;;;;;;;4900745;29;20044;-73
2021/04/30 11:49:38;;;;;;;25.30;17.13;;;;;;;;;;4918238;29;20648;-70
2021/04/30 11:52:11;;;;;;;27.88;16.80;;;;;;;;;;4915994;29;20574;-71
2021/04/30 11:54:39;;;;;;;26.52;18.25;;;;;;;;;;4917082;29;20143;-71
2021/04/30 11:57:09;;;;;;;25.55;18.67;;;;;;;;;;4917710;29;20090;-72
2021/04/30 11:59:55;;;;;;;27.25;18.25;;;;;;;;;;4913868;29;20131;-71
2021/04/30 12:02:28;;;;;;;23.80;17.58;;;;;;;;;;4904885;29;20048;-71
2021/04/30 12:04:55;;;;;;;24.70;18.13;;;;;;;;;;4915635;29;20434;-70
2021/04/30 12:07:38;;;;;;;24.70;17.92;;;;;;;;;;4914798;29;20068;-68
2021/04/30 12:10:17;;;;;;;26.95;19.00;;;;;;;;;;4914999;29;20044;-70
2021/04/30 12:12:46;;;;;;;26.80;17.90;;;;;;;;;;4917376;29;20080;-72
2021/04/30 12:15:15;;;;;;;24.15;16.25;;;;;;;;;;4915595;29;20048;-70
2021/04/30 12:17:43;;;;;;;24.35;17.50;;;;;;;;;;4903709;29;20076;-69
2021/04/30 12:20:12;;;;;;;25.60;17.58;;;;;;;;;;4910461;29;20491;-69
2021/04/30 12:22:58;;;;;;;27.50;17.58;;;;;;;;;;4925602;29;20060;-69
2021/04/30 12:25:45;;;;;;;26.85;18.08;;;;;;;;;;4917618;29;20056;-73
2021/04/30 12:28:22;;;;;;;24.27;18.08;;;;;;;;;;4899777;29;20052;-67
2021/04/30 12:31:01;;;;;;;26.00;17.20;;;;;;;;;;4915256;29;20052;-67
2021/04/30 12:33:36;;;;;;;22.10;15.77;;;;;;;;;;4915223;29;20505;-67
2021/04/30 12:36:11;;;;;;;23.48;15.45;;;;;;;;;;4914679;29;20044;-68
2021/04/30 12:38:38;;;;;;;19.88;15.35;;;;;;;;;;4911799;29;20104;-69
2021/04/30 12:41:07;;;;;;;23.95;16.55;;;;;;;;;;4898263;29;20052;-71
2021/04/30 12:43:35;;;;;;;21.25;15.80;;;;;;;;;;4905470;29;20555;-69
2021/04/30 12:46:10;;;;;;;21.70;16.10;;;;;;;;;;4914923;29;20045;-70
2021/04/30 12:48:36;;;;;;;20.00;13.85;;;;;;;;;;4914732;29;20478;-70
2021/04/30 12:51:02;;;;;;;21.65;15.70;;;;;;;;;;4914066;29;20051;-70
2021/04/30 12:53:28;;;;;;;20.20;14.60;;;;;;;;;;4902677;29;20518;-69
2021/04/30 12:55:54;;;;;;;20.05;14.65;;;;;;;;;;4904580;29;20076;-71
2021/04/30 12:58:21;;;;;;;17.17;12.57;;;;;;;;;;4914904;29;20048;-68
2021/04/30 13:00:56;;;;;;;19.25;13.93;;;;;;;;;;4914924;29;20055;-71
2021/04/30 13:03:22;;;;;;;25.05;15.95;;;;;;;;;;4914138;29;20048;-71
2021/04/30 13:05:49;;;;;;;21.35;14.82;;;;;;;;;;4914474;29;20419;-70
2021/04/30 13:08:16;;;;;;;21.15;15.60;;;;;;;;;;4915699;29;20645;-72
2021/04/30 13:10:43;;;;;;;22.85;15.75;;;;;;;;;;4915642;29;20111;-70
2021/04/30 13:13:09;;;;;;;19.33;13.77;;;;;;;;;;4898085;29;20044;-71
2021/04/30 13:15:36;;;;;;;24.67;17.08;;;;;;;;;;4914086;29;20052;-70
2021/04/30 13:18:02;;;;;;;22.50;16.35;;;;;;;;;;4914800;29;20048;-70
2021/04/30 13:20:31;;;;;;;22.48;15.35;;;;;;;;;;4914151;29;20111;-70
2021/04/30 13:23:02;;;;;;;20.80;15.25;;;;;;;;;;4913999;29;20052;-69
2021/04/30 13:25:47;;;;;;;20.38;15.20;;;;;;;;;;4914619;29;20056;-70
2021/04/30 13:28:17;;;;;;;21.48;16.10;;;;;;;;;;4914426;29;20074;-70
2021/04/30 13:30:45;;;;;;;25.98;17.63;;;;;;;;;;4914397;29;20096;-70
2021/04/30 13:33:21;;;;;;;25.02;16.80;;;;;;;;;;4914212;29;20096;-70
2021/04/30 13:35:49;;;;;;;25.83;16.58;;;;;;;;;;4912063;29;20048;-72
2021/04/30 13:38:19;;;;;;;22.67;16.52;;;;;;;;;;4912617;29;20052;-71
2021/04/30 13:40:45;;;;;;;23.17;16.08;;;;;;;;;;4914141;29;20538;-71
2021/04/30 13:43:12;;;;;;;23.00;16.35;;;;;;;;;;4914414;29;20052;-71
2021/04/30 13:45:38;;;;;;;22.63;16.48;;;;;;;;;;4905132;29;20170;-69
2021/04/30 13:48:05;;;;;;;22.40;15.13;;;;;;;;;;4914899;29;20107;-69
2021/04/30 13:50:35;;;;;;;22.63;16.27;;;;;;;;;;4913897;29;20104;-70
2021/04/30 13:53:06;;;;;;;23.88;15.88;;;;;;;;;;4910877;29;20096;-70
2021/04/30 13:55:41;;;;;;;22.73;15.05;;;;;;;;;;4912915;29;20052;-71
2021/04/30 13:58:08;;;;;;;22.92;15.50;;;;;;;;;;4896520;29;20053;-70
2021/04/30 14:00:38;;;;;;;21.10;15.82;;;;;;;;;;4914125;29;20060;-70
2021/04/30 14:03:04;;;;;;;17.80;14.95;;;;;;;;;;4902833;29;20059;-70
2021/04/30 14:05:30;;;;;;;23.55;15.95;;;;;;;;;;4902993;29;20515;-72
2021/04/30 14:08:04;;;;;;;22.00;16.08;;;;;;;;;;4891915;29;20057;-72
2021/04/30 14:10:36;;;;;;;21.27;15.98;;;;;;;;;;4891883;29;20163;-73
2021/04/30 14:13:02;;;;;;;24.45;16.52;;;;;;;;;;4890644;29;20491;-73
2021/04/30 14:15:28;;;;;;;25.08;16.05;;;;;;;;;;4882647;29;20049;-73
2021/04/30 14:17:55;;;;;;;21.77;16.58;;;;;;;;;;4891845;29;20071;-74
2021/04/30 14:20:21;;;;;;;23.88;16.95;;;;;;;;;;4893025;29;20076;-73
2021/04/30 14:22:47;;;;;;;22.92;16.63;;;;;;;;;;4893899;29;20101;-71
2021/04/30 14:25:13;;;;;;;21.75;15.48;;;;;;;;;;4897805;29;20060;-71
2021/04/30 14:27:40;;;;;;;24.27;17.55;;;;;;;;;;4893504;29;20063;-74
2021/04/30 14:30:06;;;;;;;23.13;17.42;;;;;;;;;;4893524;29;20052;-73
2021/04/30 14:32:34;;;;;;;24.25;17.77;;;;;;;;;;4893497;29;20683;-72
2021/04/30 14:35:04;;;;;;;26.40;18.05;;;;;;;;;;4895931;29;20075;-72
2021/04/30 14:37:30;;;;;;;25.95;16.63;;;;;;;;;;4892541;29;20516;-71